Paradise, Pennsylvania
Current Conditions -  °F | °C
As of 11:53 AM on Thursday 27 Nov 2014 (Local Time) from KLNS Reporting Station
Overcast Overcast  
Wind Chill: 30°   Ceiling: 6000
Heat Index: 36°   Visibility: 10mi
Dew Point: 27°   Wind: 8mph
Humidity: 70%   Direction: 330°NNW
Pressure: 30.03"   Gusts: NA
Location:  40.01°N, 76.12°W
Report Text: KLNS 271653Z 33007KT 10SM OVC060 02/M03 A3003 RMK AO2 SLP171 T00221028
Loading
Personal Weather Stations






























Interactive Weather Map New forecast layout! Learn more

10-Day Weather Forecast

Advertisements
Track Severe Weather on mobile